Aeroporto :
LOGIN :

Iscrizione | Disclaimer

   EN    FR    IT 

 










Sommario :    VFR   VFR Marginale   IFR   IFR Intensivo   IFR Molto Intensivo
Visibilità : 
Base nubi : 
>= 8 km
>= 3000ft
5 / 8 km
1000 / 3000 ft
1500m / 5 km
500 / 1000 ft
800 / 1500m
200 / 500 ft
< 800m
< 200 ft
Simboli :   Temporali  Nebbia  Neve Forte  Precipitazioni Forti  Vento > 20 kt
SIGMETs :   Varie  Temporali  Ghiacco  Turbolenza  Onda orograficha  Ceneri Vulcaniche






- Altitudine del aeroporto : 284 ft


EGUW - RAF Wattisham

ULTIMO METAR :
  • 241450Z 21004KT 4000 -DZ OVC012 06/06 Q1021 BECMG 5000 BR BKN015 RMK GRN BECMG WHT

METARs OBSOLETI :
  • 241420Z 21004KT 4000 -DZ FEW003 OVC014 06/06 Q1021 BECMG 5000 BR BKN015 RMK GRN BECMG WHT
  • 241350Z 21005KT 4500 -DZ SCT014 OVC015 06/06 Q1021 BECMG 5000 BR BKN015 RMK GRN BECMG WHT
  • 241320Z 20004KT 5000 BR FEW012 OVC015 06/06 Q1021 NOSIG RMK WHT WHT
  • 241250Z 20005KT 5000 BR BKN012 OVC016 06/06 Q1022 BECMG BKN018 RMK GRN BECMG WHT
  • 241220Z 21004KT 4000 BR FEW003 OVC013 06/06 Q1022 BECMG 5000 RMK GRN BECMG GRN

TAF AMD TAF EGUW
Valido dal 24 a 15 ore il 24 a 19 ore UTC


241430Z 2415/2419 25005KT 4000 BR BKN013
PROB40 2415/2419 5000 BKN015



MetMap, La meteo Aeronautica in un colpo d'occhio ! - Copyright ORBIFLY Dicembre 2007 - Disclaimer

ORBIFLY MET'MAP TEAM :

Programmazione e sviluppo : Alexandra Zaïnal
Concezione : Baudouin d'Aumeries
Aiuto per la programmazione : Marc-Olivier Méhu
Supporto tecnico e logistico : Manuel Goepfert
Aiuto per la traduzione : Arnaldo La Scala

Contatto : metmap@orbifly.com




FONTI E CREDITI :

   NOAA